Time;durP1;ratioP1;P1;durP2;ratioP2;P2;SDS_P1;SDS_P2;PMS_P1;PMS_P2;Temp;Humidity;BMP_temperature;BMP_pressure;BME280_temperature;BME280_humidity;BME280_pressure;Samples;Min_cycle;Max_cycle;Signal;HPM_P1;HPM_P2
2022/10/20 00:02:06;;;;;;;3.97;2.53;;;11.80;98.00;;;;;;5092145;28;20458;-67
2022/10/20 00:04:33;;;;;;;6.77;3.00;;;11.80;98.00;;;;;;5091786;28;20958;-68
2022/10/20 00:07:00;;;;;;;4.27;2.60;;;11.70;98.00;;;;;;5091920;28;20987;-68
2022/10/20 00:09:27;;;;;;;4.93;3.03;;;11.80;98.00;;;;;;5091668;28;20462;-68
2022/10/20 00:11:54;;;;;;;2.33;1.90;;;11.80;98.00;;;;;;5091692;28;20898;-68
2022/10/20 00:14:21;;;;;;;4.60;2.53;;;11.80;98.00;;;;;;5091608;28;20448;-68
2022/10/20 00:16:48;;;;;;;11.57;2.97;;;11.80;98.00;;;;;;5090416;28;20466;-68
2022/10/20 00:19:16;;;;;;;3.70;2.00;;;11.80;98.00;;;;;;5091463;28;20457;-68
2022/10/20 00:21:44;;;;;;;4.07;2.37;;;11.80;98.00;;;;;;5091707;28;20459;-68
2022/10/20 00:24:11;;;;;;;3.83;2.50;;;11.90;98.00;;;;;;5090443;28;20481;-68
2022/10/20 00:26:41;;;;;;;4.57;2.17;;;11.80;98.00;;;;;;5091528;28;20458;-68
2022/10/20 00:29:08;;;;;;;4.27;2.70;;;11.80;98.00;;;;;;5091444;28;20543;-68
2022/10/20 00:31:35;;;;;;;4.50;2.10;;;11.80;98.00;;;;;;5091511;28;20947;-68
2022/10/20 00:34:02;;;;;;;4.17;2.47;;;11.70;98.00;;;;;;5091641;28;20456;-68
2022/10/20 00:36:30;;;;;;;5.50;2.63;;;11.70;98.00;;;;;;5091313;28;21092;-68
2022/10/20 00:38:59;;;;;;;4.50;2.10;;;11.80;98.00;;;;;;5091595;28;20947;-68
2022/10/20 00:41:26;;;;;;;4.43;2.10;;;11.70;98.00;;;;;;5091632;28;20949;-68
2022/10/20 00:43:55;;;;;;;4.70;2.30;;;11.70;98.00;;;;;;5091345;28;20464;-68
2022/10/20 00:46:26;;;;;;;8.50;2.60;;;11.60;98.00;;;;;;5091303;28;20505;-68
2022/10/20 00:48:57;;;;;;;3.90;2.80;;;11.70;98.00;;;;;;5091229;28;20978;-68
2022/10/20 00:51:27;;;;;;;5.67;2.57;;;11.60;98.00;;;;;;5091349;28;20478;-68
2022/10/20 00:54:01;;;;;;;3.97;2.27;;;11.60;98.00;;;;;;5091284;28;20460;-68
2022/10/20 00:56:29;;;;;;;7.20;3.07;;;11.60;98.00;;;;;;5091213;28;20462;-67
2022/10/20 00:58:56;;;;;;;3.60;2.27;;;11.60;98.00;;;;;;5093354;28;20873;-68
2022/10/20 01:01:23;;;;;;;4.90;2.97;;;11.70;98.00;;;;;;5095214;28;20961;-68
2022/10/20 01:03:52;;;;;;;5.37;2.40;;;11.60;98.00;;;;;;5095389;28;20719;-67
2022/10/20 01:06:22;;;;;;;5.10;2.50;;;11.60;98.00;;;;;;5095134;28;20459;-68
2022/10/20 01:08:49;;;;;;;6.70;2.27;;;11.50;98.00;;;;;;5093924;28;20461;-68
2022/10/20 01:11:23;;;;;;;5.33;2.77;;;11.50;98.00;;;;;;5095008;28;20488;-68
2022/10/20 01:14:11;;;;;;;4.30;2.67;;;11.40;98.00;;;;;;5095171;28;20469;-67
2022/10/20 01:16:50;;;;;;;3.97;2.30;;;11.40;98.00;;;;;;5095048;28;20850;-68
2022/10/20 01:19:39;;;;;;;2.90;2.13;;;11.40;98.00;;;;;;5094911;28;20457;-68
2022/10/20 01:22:23;;;;;;;4.80;2.37;;;11.50;98.00;;;;;;5094972;28;20492;-68
2022/10/20 01:25:01;;;;;;;5.50;2.30;;;11.50;98.00;;;;;;5094929;28;20454;-68
2022/10/20 01:27:38;;;;;;;5.13;1.93;;;11.50;98.00;;;;;;5094982;28;20491;-68
2022/10/20 01:30:10;;;;;;;5.17;2.73;;;11.70;98.00;;;;;;5094803;28;20465;-68
2022/10/20 01:33:08;;;;;;;6.40;2.40;;;11.60;98.00;;;;;;5094865;28;20836;-68
2022/10/20 01:35:50;;;;;;;9.33;2.67;;;11.60;98.00;;;;;;5078252;28;20958;-68
2022/10/20 01:38:26;;;;;;;3.90;2.60;;;11.60;98.00;;;;;;5093596;28;20958;-68
2022/10/20 01:40:58;;;;;;;4.37;2.43;;;11.60;98.00;;;;;;5093637;28;20458;-68
2022/10/20 01:43:31;;;;;;;4.27;2.63;;;11.60;98.00;;;;;;5093434;28;20509;-68
2022/10/20 01:46:00;;;;;;;4.47;2.63;;;11.50;98.00;;;;;;5094621;28;20470;-68
2022/10/20 01:48:31;;;;;;;4.40;2.57;;;11.60;98.00;;;;;;5094362;28;20448;-67
2022/10/20 01:50:59;;;;;;;4.03;2.40;;;11.70;98.00;;;;;;5094356;28;20484;-68
2022/10/20 01:53:28;;;;;;;4.40;2.43;;;11.70;98.00;;;;;;5094373;28;20926;-68
2022/10/20 01:55:58;;;;;;;4.97;3.43;;;11.80;98.00;;;;;;5094345;28;20464;-68
2022/10/20 01:58:57;;;;;;;4.17;2.77;;;11.60;98.00;;;;;;5094030;28;20473;-68
2022/10/20 02:01:34;;;;;;;5.80;3.07;;;11.60;98.00;;;;;;5094211;28;20825;-68
2022/10/20 02:04:04;;;;;;;3.80;2.40;;;11.40;98.00;;;;;;5094201;28;20460;-67
2022/10/20 02:06:42;;;;;;;5.50;2.43;;;11.50;98.00;;;;;;5093968;28;20458;-68
2022/10/20 02:09:15;;;;;;;4.20;2.90;;;11.40;98.00;;;;;;5093790;28;20465;-68
2022/10/20 02:11:48;;;;;;;3.43;2.40;;;11.50;98.00;;;;;;5093894;28;20482;-68
2022/10/20 02:14:20;;;;;;;4.80;2.40;;;11.60;98.00;;;;;;5093895;28;20872;-68
2022/10/20 02:16:50;;;;;;;7.10;2.90;;;11.50;98.00;;;;;;5092366;28;20455;-68
2022/10/20 02:19:21;;;;;;;6.03;2.80;;;11.40;98.00;;;;;;5093729;28;20460;-68
2022/10/20 02:21:51;;;;;;;5.07;2.13;;;11.40;98.00;;;;;;5093780;28;20461;-68
2022/10/20 02:24:19;;;;;;;8.80;2.70;;;11.40;98.00;;;;;;5093692;28;20465;-68
2022/10/20 02:26:47;;;;;;;4.90;2.47;;;11.60;98.00;;;;;;5093845;28;20461;-68
2022/10/20 02:29:16;;;;;;;4.73;2.23;;;11.60;98.00;;;;;;5092251;28;20453;-68
2022/10/20 02:31:46;;;;;;;4.43;2.30;;;11.70;98.00;;;;;;5093556;28;20491;-68
2022/10/20 02:34:13;;;;;;;3.67;2.40;;;11.80;98.00;;;;;;5093751;28;20522;-68
2022/10/20 02:36:43;;;;;;;5.53;2.73;;;11.80;98.00;;;;;;5093714;28;20663;-68
2022/10/20 02:39:11;;;;;;;7.03;2.43;;;11.80;98.00;;;;;;5093691;28;20506;-68
2022/10/20 02:41:38;;;;;;;5.50;2.80;;;12.00;98.00;;;;;;5093764;28;20467;-68
2022/10/20 02:44:05;;;;;;;6.70;2.67;;;12.00;98.00;;;;;;5093228;28;20460;-68
2022/10/20 02:46:32;;;;;;;6.93;3.30;;;12.00;98.00;;;;;;5092081;28;20460;-68
2022/10/20 02:49:01;;;;;;;3.73;2.40;;;12.10;98.00;;;;;;5093504;28;20449;-68
2022/10/20 02:51:28;;;;;;;3.70;2.40;;;12.20;98.00;;;;;;5092083;28;20833;-68
2022/10/20 02:53:55;;;;;;;5.00;2.63;;;12.20;98.00;;;;;;5091921;28;20465;-68
2022/10/20 02:56:23;;;;;;;4.50;2.37;;;12.20;98.00;;;;;;5091842;28;20959;-68
2022/10/20 02:58:50;;;;;;;4.93;2.43;;;12.10;98.00;;;;;;5093180;28;21638;-68
2022/10/20 03:01:17;;;;;;;4.27;2.50;;;12.10;98.00;;;;;;5093019;28;20456;-68
2022/10/20 03:03:44;;;;;;;4.40;2.40;;;12.00;98.00;;;;;;5092947;28;20467;-68
2022/10/20 03:06:14;;;;;;;5.40;2.97;;;12.00;98.00;;;;;;5092915;28;20456;-68
2022/10/20 03:08:42;;;;;;;9.97;3.60;;;12.00;98.00;;;;;;5074911;28;20467;-68
2022/10/20 03:11:10;;;;;;;6.63;3.40;;;12.00;98.00;;;;;;5091492;28;20452;-68
2022/10/20 03:13:37;;;;;;;8.57;3.10;;;12.00;98.00;;;;;;5092679;28;20463;-68
2022/10/20 03:16:04;;;;;;;4.93;2.90;;;12.10;98.00;;;;;;5092785;28;20463;-68
2022/10/20 03:18:31;;;;;;;5.73;2.80;;;12.10;98.00;;;;;;5091284;28;20459;-68
2022/10/20 03:20:58;;;;;;;6.73;2.77;;;12.20;98.00;;;;;;5092101;28;20464;-68
2022/10/20 03:23:26;;;;;;;3.97;2.20;;;12.40;98.00;;;;;;5092475;28;20454;-68
2022/10/20 03:25:53;;;;;;;7.40;2.83;;;12.40;98.00;;;;;;5091379;28;20824;-68
2022/10/20 03:28:20;;;;;;;4.97;2.90;;;12.40;98.00;;;;;;5092224;28;20464;-68
2022/10/20 03:30:48;;;;;;;7.37;3.03;;;12.50;98.00;;;;;;5092622;28;20457;-68
2022/10/20 03:33:15;;;;;;;6.03;2.73;;;12.50;98.00;;;;;;5092294;28;20489;-67
2022/10/20 03:35:42;;;;;;;14.93;3.00;;;12.50;98.00;;;;;;5092536;28;20822;-68
2022/10/20 03:38:09;;;;;;;8.63;3.03;;;12.60;98.00;;;;;;5092529;28;20507;-68
2022/10/20 03:40:38;;;;;;;6.63;3.07;;;12.50;98.00;;;;;;5092495;28;20543;-68
2022/10/20 03:43:06;;;;;;;7.47;3.13;;;12.50;98.00;;;;;;5092339;28;20992;-68
2022/10/20 03:45:33;;;;;;;7.13;3.80;;;12.60;98.00;;;;;;5092228;28;20459;-68
2022/10/20 03:48:00;;;;;;;9.93;3.37;;;12.60;98.00;;;;;;5092546;28;20739;-68
2022/10/20 03:50:27;;;;;;;4.30;2.53;;;12.60;98.00;;;;;;5092118;28;20942;-68
2022/10/20 03:52:54;;;;;;;6.70;3.00;;;12.70;98.00;;;;;;5092128;28;20494;-68
2022/10/20 03:55:21;;;;;;;5.33;2.53;;;12.60;98.00;;;;;;5091993;28;20470;-68
2022/10/20 03:57:50;;;;;;;8.63;3.23;;;12.60;98.00;;;;;;5092075;28;20476;-68
2022/10/20 04:00:17;;;;;;;4.07;2.40;;;12.70;98.00;;;;;;5091760;28;20516;-68
2022/10/20 04:02:45;;;;;;;8.17;3.53;;;12.80;98.00;;;;;;5091909;28;20465;-68
2022/10/20 04:05:14;;;;;;;6.13;2.93;;;12.80;98.00;;;;;;5091754;28;20462;-68
2022/10/20 04:07:42;;;;;;;4.83;3.00;;;12.80;98.00;;;;;;5090668;28;20457;-68
2022/10/20 04:10:10;;;;;;;5.53;2.67;;;12.80;98.00;;;;;;5091705;28;20457;-68
2022/10/20 04:12:40;;;;;;;7.07;2.93;;;12.80;98.00;;;;;;5091727;28;20840;-68
2022/10/20 04:15:10;;;;;;;13.00;3.60;;;12.80;98.00;;;;;;5091676;28;20462;-68
2022/10/20 04:17:38;;;;;;;6.47;2.53;;;12.70;98.00;;;;;;5091609;28;20469;-68
2022/10/20 04:20:06;;;;;;;6.20;2.47;;;12.70;98.00;;;;;;5091420;28;20516;-68
2022/10/20 04:22:33;;;;;;;6.40;3.50;;;12.80;98.00;;;;;;5090297;28;20455;-69
2022/10/20 04:25:01;;;;;;;5.83;3.10;;;12.90;98.00;;;;;;5091535;28;20463;-68
2022/10/20 04:27:28;;;;;;;9.03;3.47;;;12.90;98.00;;;;;;5091403;28;20458;-68
2022/10/20 04:29:55;;;;;;;5.37;2.50;;;12.90;98.00;;;;;;5091472;28;20452;-68
2022/10/20 04:32:24;;;;;;;8.10;4.03;;;12.80;98.00;;;;;;5090361;28;20842;-68
2022/10/20 04:34:51;;;;;;;6.73;3.20;;;12.70;98.00;;;;;;5091359;28;20459;-68
2022/10/20 04:37:18;;;;;;;7.47;3.27;;;12.70;98.00;;;;;;5090101;28;20454;-68
2022/10/20 04:39:46;;;;;;;5.37;3.10;;;12.80;98.00;;;;;;5091755;28;20463;-68
2022/10/20 04:42:13;;;;;;;7.40;3.70;;;12.80;98.00;;;;;;5091402;28;20467;-68
2022/10/20 04:44:40;;;;;;;9.60;3.30;;;12.80;98.00;;;;;;5090163;28;20464;-68
2022/10/20 04:47:07;;;;;;;5.27;3.10;;;12.80;98.00;;;;;;5091285;28;20458;-68
2022/10/20 04:49:35;;;;;;;8.20;3.20;;;12.80;98.00;;;;;;5091155;28;20515;-68
2022/10/20 04:52:04;;;;;;;6.83;2.90;;;12.80;98.00;;;;;;5091420;28;20476;-68
2022/10/20 04:54:32;;;;;;;6.10;2.40;;;12.80;98.00;;;;;;5091263;28;20935;-68
2022/10/20 04:56:59;;;;;;;4.83;2.50;;;12.80;98.00;;;;;;5091405;28;20480;-68
2022/10/20 04:59:26;;;;;;;4.83;3.10;;;12.80;98.00;;;;;;5090928;28;20493;-68
2022/10/20 05:01:53;;;;;;;5.60;2.57;;;12.90;98.00;;;;;;5091257;28;20470;-68
2022/10/20 05:04:21;;;;;;;5.23;3.30;;;12.80;98.00;;;;;;5089858;28;20473;-68
2022/10/20 05:06:50;;;;;;;7.03;3.37;;;12.90;98.00;;;;;;5091067;28;20453;-68
2022/10/20 05:09:17;;;;;;;6.80;3.10;;;12.90;98.00;;;;;;5091006;28;20471;-68
2022/10/20 05:11:44;;;;;;;4.10;2.83;;;12.90;98.00;;;;;;5091060;28;20460;-68
2022/10/20 05:16:46;;;;;;;4.77;2.80;;;12.90;98.00;;;;;;5240436;22;20493;-68
2022/10/20 05:19:13;;;;;;;4.50;2.50;;;12.90;98.00;;;;;;5051261;28;20866;-68
2022/10/20 05:21:40;;;;;;;4.40;2.70;;;12.90;98.00;;;;;;5051535;28;20464;-68
2022/10/20 05:24:13;;;;;;;3.80;2.60;;;12.90;98.00;;;;;;5033833;28;20455;-68
2022/10/20 05:26:41;;;;;;;5.23;2.77;;;12.90;98.00;;;;;;5051389;28;20471;-68
2022/10/20 05:29:10;;;;;;;5.50;2.80;;;12.90;98.00;;;;;;5051538;28;20954;-67
2022/10/20 05:31:39;;;;;;;5.07;2.60;;;12.90;98.00;;;;;;5033788;28;20494;-67
2022/10/20 05:34:07;;;;;;;6.93;3.33;;;13.00;98.00;;;;;;5051526;28;20581;-68
2022/10/20 05:36:34;;;;;;;4.70;2.80;;;13.00;98.00;;;;;;5051585;28;20460;-64
2022/10/20 05:39:01;;;;;;;5.40;2.67;;;13.00;98.00;;;;;;5051400;28;20840;-65
2022/10/20 05:41:31;;;;;;;4.90;2.80;;;13.00;98.00;;;;;;5051295;28;20464;-64
2022/10/20 05:44:00;;;;;;;4.40;2.77;;;13.10;98.00;;;;;;5052882;28;20468;-65
2022/10/20 05:46:31;;;;;;;4.50;2.73;;;13.00;98.00;;;;;;5037285;28;20483;-64
2022/10/20 05:48:59;;;;;;;17.43;3.50;;;13.00;98.00;;;;;;5054773;28;20867;-64
2022/10/20 05:51:29;;;;;;;4.17;2.70;;;13.00;98.00;;;;;;5054835;28;20454;-65
2022/10/20 05:53:58;;;;;;;5.83;3.00;;;13.00;98.00;;;;;;5054734;28;20482;-64
2022/10/20 05:56:28;;;;;;;5.87;2.67;;;13.00;98.00;;;;;;5054599;28;20455;-65
2022/10/20 05:58:57;;;;;;;5.47;3.10;;;13.00;98.00;;;;;;5054705;28;20464;-64
2022/10/20 06:01:37;;;;;;;3.77;2.77;;;13.00;98.00;;;;;;5054432;28;21117;-65
2022/10/20 06:04:04;;;;;;;3.83;2.03;;;13.00;98.00;;;;;;5038371;28;20455;-64
2022/10/20 06:06:33;;;;;;;6.37;2.50;;;13.00;98.00;;;;;;5054512;28;20458;-65
2022/10/20 06:09:01;;;;;;;5.10;2.50;;;13.10;98.00;;;;;;5054557;28;20468;-64
2022/10/20 06:11:28;;;;;;;6.93;3.20;;;13.10;98.00;;;;;;5054449;28;20498;-64
2022/10/20 06:13:57;;;;;;;6.20;3.00;;;13.10;98.00;;;;;;5054304;28;20487;-64
2022/10/20 06:16:28;;;;;;;8.33;3.07;;;13.10;98.00;;;;;;5036500;28;20476;-64
2022/10/20 06:18:57;;;;;;;4.90;2.43;;;13.10;98.00;;;;;;5054362;28;20456;-64
2022/10/20 06:21:25;;;;;;;4.77;2.97;;;13.10;98.00;;;;;;5054270;28;20501;-65
2022/10/20 06:23:54;;;;;;;6.07;2.53;;;13.00;98.00;;;;;;5054156;28;20471;-65
2022/10/20 06:26:24;;;;;;;3.57;2.30;;;13.10;98.00;;;;;;5054315;28;20454;-64
2022/10/20 06:28:53;;;;;;;4.50;2.57;;;13.10;98.00;;;;;;5054055;28;20464;-65
2022/10/20 06:31:24;;;;;;;3.03;2.20;;;13.20;98.00;;;;;;5053328;28;20454;-65
2022/10/20 06:33:51;;;;;;;4.23;2.43;;;13.20;98.00;;;;;;5053283;28;20479;-65
2022/10/20 06:36:20;;;;;;;5.40;2.70;;;13.20;98.00;;;;;;5053359;28;20466;-64
2022/10/20 06:38:48;;;;;;;5.30;2.20;;;13.20;98.00;;;;;;5053372;28;20473;-64
2022/10/20 06:41:17;;;;;;;2.70;1.90;;;13.30;98.00;;;;;;5053953;28;20484;-64
2022/10/20 06:43:53;;;;;;;4.93;2.33;;;13.30;98.00;;;;;;5053554;28;20468;-65
2022/10/20 06:46:22;;;;;;;3.53;2.50;;;13.30;98.00;;;;;;5037513;28;20461;-65
2022/10/20 06:48:49;;;;;;;6.10;2.80;;;13.30;98.00;;;;;;5053656;28;20461;-64
2022/10/20 06:51:20;;;;;;;3.30;2.27;;;13.30;98.00;;;;;;5053701;28;20519;-65
2022/10/20 06:53:48;;;;;;;4.57;2.47;;;13.40;98.00;;;;;;5053572;28;20573;-64
2022/10/20 06:56:20;;;;;;;6.10;3.10;;;13.40;98.00;;;;;;5052502;28;20461;-64
2022/10/20 06:58:49;;;;;;;5.43;2.70;;;13.50;98.00;;;;;;5053475;28;20813;-65
2022/10/20 07:01:22;;;;;;;5.27;2.47;;;13.50;98.00;;;;;;5052119;28;20469;-64
2022/10/20 07:03:52;;;;;;;3.23;2.40;;;13.40;98.00;;;;;;5053489;28;20480;-65
2022/10/20 07:06:21;;;;;;;5.07;2.17;;;13.50;98.00;;;;;;5053437;28;20488;-65
2022/10/20 07:08:49;;;;;;;5.63;2.57;;;13.60;98.00;;;;;;5053231;28;20523;-65
2022/10/20 07:11:18;;;;;;;4.47;2.63;;;13.60;98.00;;;;;;5053175;28;20506;-64
2022/10/20 07:13:48;;;;;;;3.77;2.40;;;13.60;98.00;;;;;;5042071;28;20894;-64
2022/10/20 07:16:18;;;;;;;4.20;2.30;;;13.50;98.00;;;;;;5033211;28;20551;-64
2022/10/20 07:18:45;;;;;;;4.13;2.43;;;13.60;98.00;;;;;;5033236;28;20851;-65
2022/10/20 07:21:16;;;;;;;3.90;2.40;;;13.60;98.00;;;;;;5037588;28;20461;-65
2022/10/20 07:23:43;;;;;;;8.23;3.20;;;13.70;98.00;;;;;;5053106;28;20459;-64
2022/10/20 07:26:13;;;;;;;3.90;2.50;;;13.70;98.00;;;;;;5053167;28;20460;-65
2022/10/20 07:28:42;;;;;;;5.60;2.30;;;13.70;98.00;;;;;;5042725;28;20887;-64
2022/10/20 07:31:12;;;;;;;4.13;2.63;;;13.80;98.00;;;;;;5031543;28;20472;-65
2022/10/20 07:33:39;;;;;;;4.60;2.37;;;13.80;98.00;;;;;;5040967;28;20995;-64
2022/10/20 07:36:12;;;;;;;2.77;1.93;;;13.90;98.00;;;;;;5052990;28;20452;-64
2022/10/20 07:38:42;;;;;;;3.27;2.20;;;14.00;98.00;;;;;;5053099;28;20551;-65
2022/10/20 07:41:09;;;;;;;4.67;2.73;;;14.00;98.00;;;;;;5052511;28;20931;-64
2022/10/20 07:43:39;;;;;;;3.20;2.63;;;14.00;98.00;;;;;;5052280;28;20629;-64
2022/10/20 07:46:06;;;;;;;5.30;2.43;;;14.10;98.00;;;;;;5052392;28;20447;-65
2022/10/20 07:48:33;;;;;;;6.00;4.37;;;14.10;98.00;;;;;;5052124;28;20453;-63
2022/10/20 07:51:27;;;;;;;3.90;2.43;;;14.20;98.00;;;;;;5052268;28;21017;-65
2022/10/20 07:53:57;;;;;;;4.80;2.70;;;14.30;98.00;;;;;;5051552;28;20495;-64
2022/10/20 07:56:27;;;;;;;7.43;2.73;;;14.30;98.00;;;;;;5050562;28;20452;-65
2022/10/20 07:58:55;;;;;;;5.27;2.47;;;14.30;98.00;;;;;;5050566;28;20883;-64
2022/10/20 08:01:22;;;;;;;4.77;2.77;;;14.40;98.00;;;;;;5051439;28;20457;-64
2022/10/20 08:03:50;;;;;;;3.00;1.93;;;14.50;98.00;;;;;;5041545;28;20487;-64
2022/10/20 08:06:17;;;;;;;5.30;2.90;;;14.50;98.00;;;;;;5064178;28;20865;-64
2022/10/20 08:08:44;;;;;;;8.43;2.90;;;14.60;98.00;;;;;;5042463;28;20543;-64
2022/10/20 08:11:13;;;;;;;5.67;2.40;;;14.70;98.00;;;;;;5050875;28;20482;-65
2022/10/20 08:13:41;;;;;;;5.77;3.10;;;14.80;98.00;;;;;;5035689;28;20508;-65
2022/10/20 08:16:10;;;;;;;3.20;2.07;;;15.00;98.00;;;;;;5047325;28;20461;-65
2022/10/20 08:18:37;;;;;;;4.10;2.43;;;15.10;98.00;;;;;;5042444;28;20936;-64
2022/10/20 08:21:09;;;;;;;7.27;2.47;;;15.10;98.00;;;;;;5052261;28;21046;-64
2022/10/20 08:23:39;;;;;;;4.27;2.60;;;15.20;98.00;;;;;;5042366;28;20546;-65
2022/10/20 08:26:06;;;;;;;4.00;2.30;;;15.30;98.00;;;;;;5063328;28;20468;-65
2022/10/20 08:28:35;;;;;;;2.80;2.03;;;15.40;98.00;;;;;;5064826;28;20476;-65
2022/10/20 08:31:03;;;;;;;5.23;2.63;;;15.40;98.00;;;;;;5053214;28;20460;-65
2022/10/20 08:33:30;;;;;;;3.00;2.23;;;15.50;98.00;;;;;;5049549;28;20572;-65
2022/10/20 08:36:01;;;;;;;4.13;2.50;;;15.60;98.00;;;;;;5042051;28;20456;-64
2022/10/20 08:38:28;;;;;;;3.37;2.07;;;15.60;98.00;;;;;;5040850;28;20476;-65
2022/10/20 08:40:56;;;;;;;3.70;2.53;;;15.70;98.00;;;;;;5060067;28;20503;-65
2022/10/20 08:43:23;;;;;;;5.47;2.63;;;15.70;98.00;;;;;;5055132;28;21008;-65
2022/10/20 08:45:52;;;;;;;3.50;2.30;;;15.80;98.00;;;;;;5062556;28;20875;-64
2022/10/20 08:48:22;;;;;;;3.80;2.40;;;15.80;98.00;;;;;;5037115;28;20473;-65
2022/10/20 08:50:51;;;;;;;3.93;2.77;;;15.90;98.00;;;;;;5053259;28;20460;-65
2022/10/20 08:53:21;;;;;;;4.43;2.40;;;16.00;98.00;;;;;;5050306;28;20975;-65
2022/10/20 08:55:49;;;;;;;7.30;2.90;;;16.10;98.00;;;;;;5067966;28;20518;-65
2022/10/20 08:58:19;;;;;;;4.70;2.67;;;16.20;98.00;;;;;;5063466;28;20500;-66
2022/10/20 09:00:47;;;;;;;5.03;2.60;;;16.30;98.00;;;;;;5049864;28;20862;-65
2022/10/20 09:03:19;;;;;;;3.90;2.70;;;16.30;98.00;;;;;;5058670;28;20465;-64
2022/10/20 09:05:50;;;;;;;4.10;2.37;;;16.30;98.00;;;;;;5053728;28;20504;-65
2022/10/20 09:08:20;;;;;;;3.83;2.33;;;16.40;98.00;;;;;;5063677;28;20465;-64
2022/10/20 09:10:50;;;;;;;6.87;3.03;;;16.40;98.00;;;;;;5050762;28;20963;-65
2022/10/20 09:13:22;;;;;;;8.30;2.47;;;16.50;98.00;;;;;;5054981;28;20487;-65
2022/10/20 09:15:51;;;;;;;5.67;2.70;;;16.60;98.00;;;;;;5068296;28;20465;-64
2022/10/20 09:18:20;;;;;;;5.00;2.83;;;16.70;98.00;;;;;;5062694;28;20903;-64
2022/10/20 09:20:52;;;;;;;6.30;2.80;;;16.80;98.00;;;;;;5050207;28;20457;-65
2022/10/20 09:23:22;;;;;;;5.60;2.63;;;16.90;98.00;;;;;;5066189;28;20884;-65
2022/10/20 09:25:51;;;;;;;4.50;2.53;;;17.00;98.00;;;;;;5059509;28;20460;-65
2022/10/20 09:28:23;;;;;;;3.70;2.50;;;17.10;98.00;;;;;;5056164;28;20465;-64
2022/10/20 09:30:50;;;;;;;4.33;2.73;;;17.20;98.00;;;;;;5054198;28;20461;-65
2022/10/20 09:33:30;;;;;;;4.70;2.60;;;17.30;98.00;;;;;;5059284;28;20480;-65
2022/10/20 09:36:03;;;;;;;5.20;2.77;;;17.40;98.00;;;;;;5053361;28;20465;-65
2022/10/20 09:38:33;;;;;;;3.93;2.80;;;17.40;98.00;;;;;;5053787;28;21110;-66
2022/10/20 09:41:10;;;;;;;4.47;2.80;;;17.50;98.00;;;;;;5053224;28;20476;-65
2022/10/20 09:43:40;;;;;;;4.47;2.60;;;17.70;98.00;;;;;;5052757;28;20544;-65
2022/10/20 09:46:10;;;;;;;3.30;2.20;;;17.70;98.00;;;;;;5045619;28;20543;-65
2022/10/20 09:48:42;;;;;;;5.70;2.83;;;17.80;98.00;;;;;;5057174;28;20461;-64
2022/10/20 09:51:16;;;;;;;5.77;2.83;;;17.80;98.00;;;;;;5060664;28;20502;-65
2022/10/20 09:53:55;;;;;;;5.10;2.90;;;17.70;98.00;;;;;;5053230;28;21071;-64
2022/10/20 09:56:29;;;;;;;4.90;2.83;;;17.70;98.00;;;;;;5053570;28;20469;-64
2022/10/20 09:58:59;;;;;;;6.47;3.17;;;17.60;98.00;;;;;;5065901;28;20538;-66
2022/10/20 10:01:26;;;;;;;6.00;2.80;;;17.40;98.00;;;;;;5066391;28;20469;-68
2022/10/20 10:04:00;;;;;;;4.13;2.77;;;17.40;98.00;;;;;;5066050;28;20464;-67
2022/10/20 10:06:41;;;;;;;6.87;3.10;;;17.30;98.00;;;;;;5070284;28;20807;-66
2022/10/20 10:09:27;;;;;;;5.17;2.67;;;17.30;98.00;;;;;;5029271;28;20469;-65
2022/10/20 10:12:00;;;;;;;4.43;2.77;;;17.30;98.00;;;;;;5061203;28;20453;-62
2022/10/20 10:14:27;;;;;;;4.90;2.70;;;17.30;98.00;;;;;;5051805;28;21007;-64
2022/10/20 10:16:54;;;;;;;8.20;2.93;;;17.40;98.00;;;;;;5061979;28;20541;-65
2022/10/20 10:19:25;;;;;;;5.00;3.03;;;17.40;98.00;;;;;;5052704;28;20548;-65
2022/10/20 10:21:55;;;;;;;5.70;2.97;;;17.40;98.00;;;;;;5043637;28;20469;-65
2022/10/20 10:24:38;;;;;;;3.30;2.33;;;17.50;98.00;;;;;;5069675;28;20492;-65
2022/10/20 10:27:19;;;;;;;3.20;2.20;;;17.50;98.00;;;;;;5070172;28;20548;-64
2022/10/20 10:29:46;;;;;;;4.60;2.80;;;17.60;98.00;;;;;;5066438;28;20987;-65
2022/10/20 10:32:16;;;;;;;4.40;2.60;;;17.60;98.00;;;;;;5066224;28;20909;-65
2022/10/20 10:35:06;;;;;;;5.07;2.70;;;17.60;98.00;;;;;;5061023;28;20529;-64
2022/10/20 10:37:35;;;;;;;6.90;3.10;;;17.50;98.00;;;;;;5040894;28;20489;-65
2022/10/20 10:40:11;;;;;;;4.67;2.90;;;17.50;98.00;;;;;;5060553;28;20944;-65
2022/10/20 10:43:14;;;;;;;5.63;2.80;;;17.50;98.00;;;;;;5061844;28;20874;-65
2022/10/20 10:46:07;;;;;;;7.87;2.73;;;17.70;98.00;;;;;;5070284;28;20958;-64
2022/10/20 10:49:09;;;;;;;3.80;2.30;;;17.80;98.00;;;;;;5049292;28;20458;-65
2022/10/20 10:51:51;;;;;;;5.00;2.57;;;18.00;98.00;;;;;;5051539;28;20456;-65
2022/10/20 10:54:43;;;;;;;6.47;3.07;;;18.20;98.00;;;;;;5056536;28;20574;-65
2022/10/20 10:57:15;;;;;;;6.17;2.83;;;18.40;98.00;;;;;;5060956;28;20457;-65
2022/10/20 10:59:44;;;;;;;5.30;2.53;;;18.40;98.00;;;;;;5058700;28;20461;-65
2022/10/20 11:02:47;;;;;;;6.30;2.73;;;18.40;98.00;;;;;;5061503;28;20974;-65
2022/10/20 11:05:38;;;;;;;3.90;2.40;;;18.40;98.00;;;;;;5050526;28;20484;-65
2022/10/20 11:08:19;;;;;;;5.23;3.00;;;18.40;98.00;;;;;;5047566;28;20480;-65
2022/10/20 11:10:54;;;;;;;7.40;2.93;;;18.30;98.00;;;;;;5054336;28;20820;-65
2022/10/20 11:13:29;;;;;;;4.63;2.50;;;18.20;98.00;;;;;;5057846;28;20452;-65
2022/10/20 11:16:07;;;;;;;4.77;2.67;;;18.20;98.00;;;;;;5052068;28;20542;-65
2022/10/20 11:19:07;;;;;;;3.57;2.43;;;18.10;98.00;;;;;;5068470;28;20463;-66
2022/10/20 11:21:45;;;;;;;7.67;3.47;;;18.10;98.00;;;;;;5046105;28;20545;-65
2022/10/20 11:24:45;;;;;;;4.43;2.60;;;18.10;98.00;;;;;;5064507;28;20468;-65
2022/10/20 11:27:16;;;;;;;3.30;2.27;;;18.00;98.00;;;;;;5051086;28;20450;-66
2022/10/20 11:29:47;;;;;;;4.37;2.67;;;17.90;98.00;;;;;;5068699;28;20461;-65
2022/10/20 11:32:27;;;;;;;7.97;3.50;;;17.80;98.00;;;;;;5050501;28;20878;-65
2022/10/20 11:35:02;;;;;;;6.90;2.90;;;17.80;98.00;;;;;;5051101;28;21045;-65
2022/10/20 11:37:35;;;;;;;4.90;3.00;;;17.80;98.00;;;;;;5057679;28;20465;-65
2022/10/20 11:40:13;;;;;;;5.33;2.90;;;17.80;98.00;;;;;;5060426;28;20468;-66
2022/10/20 11:42:47;;;;;;;7.20;3.20;;;17.90;98.00;;;;;;5060352;28;20481;-70
2022/10/20 11:45:28;;;;;;;4.23;2.60;;;17.90;98.00;;;;;;5060452;28;20450;-65
2022/10/20 11:48:03;;;;;;;5.30;2.60;;;18.00;98.00;;;;;;5052294;28;20899;-64
2022/10/20 11:50:31;;;;;;;8.00;2.83;;;18.00;98.00;;;;;;5046038;28;20463;-65
2022/10/20 11:53:19;;;;;;;4.77;2.77;;;18.00;98.00;;;;;;5051360;28;20462;-64
2022/10/20 11:56:08;;;;;;;3.27;2.27;;;18.10;98.00;;;;;;5042312;28;21250;-66
2022/10/20 11:58:54;;;;;;;5.20;2.93;;;18.20;98.00;;;;;;5065636;28;21858;-65
2022/10/20 12:01:31;;;;;;;5.17;2.97;;;18.30;98.00;;;;;;5065978;28;20467;-65
2022/10/20 12:04:35;;;;;;;3.67;2.60;;;18.30;98.00;;;;;;5061817;28;20469;-65
2022/10/20 12:07:54;;;;;;;4.63;2.67;;;18.40;98.00;;;;;;5030446;28;20977;-65
2022/10/20 12:10:43;;;;;;;5.87;2.60;;;18.40;98.00;;;;;;5049354;28;20453;-65
2022/10/20 12:13:26;;;;;;;4.47;2.70;;;18.50;98.00;;;;;;5058836;28;20519;-64
2022/10/20 12:15:55;;;;;;;6.83;3.13;;;18.50;98.00;;;;;;5062476;28;20500;-65
2022/10/20 12:18:28;;;;;;;3.80;2.40;;;18.50;98.00;;;;;;5068581;28;20457;-66
2022/10/20 12:21:01;;;;;;;4.47;2.80;;;18.60;98.00;;;;;;5045937;28;20524;-65
2022/10/20 12:24:06;;;;;;;4.50;2.60;;;18.70;98.00;;;;;;5063252;28;20622;-65
2022/10/20 12:27:06;;;;;;;4.53;2.73;;;18.60;98.00;;;;;;5066240;28;20463;-67
2022/10/20 12:29:57;;;;;;;4.13;2.63;;;18.50;98.00;;;;;;5052456;28;20553;-65
2022/10/20 12:32:59;;;;;;;4.47;2.73;;;18.40;98.00;;;;;;5056915;28;20978;-65
2022/10/20 12:35:46;;;;;;;4.33;2.67;;;18.30;98.00;;;;;;5043736;28;21232;-65
2022/10/20 12:38:18;;;;;;;4.93;2.97;;;18.20;98.00;;;;;;5048944;28;20461;-67
2022/10/20 12:40:50;;;;;;;4.83;2.90;;;18.30;98.00;;;;;;5063789;28;20484;-64
2022/10/20 12:43:31;;;;;;;4.60;2.50;;;18.40;98.00;;;;;;5058158;28;20535;-64
2022/10/20 12:46:06;;;;;;;4.77;2.87;;;18.40;98.00;;;;;;5060304;28;20465;-65
2022/10/20 12:48:41;;;;;;;4.47;2.60;;;18.30;98.00;;;;;;5057255;28;20814;-65
2022/10/20 12:51:16;;;;;;;4.77;2.90;;;18.20;98.00;;;;;;5057912;28;20964;-67
2022/10/20 12:53:54;;;;;;;4.77;2.50;;;18.00;98.00;;;;;;5059551;28;20464;-67
2022/10/20 12:56:22;;;;;;;6.70;3.13;;;18.00;98.00;;;;;;5061859;28;20492;-65
2022/10/20 12:59:20;;;;;;;3.70;2.40;;;17.90;98.00;;;;;;5071660;28;20457;-65
2022/10/20 13:02:21;;;;;;;4.10;2.60;;;17.90;98.00;;;;;;5064223;28;20488;-65
2022/10/20 13:04:57;;;;;;;3.33;2.10;;;17.90;98.00;;;;;;5072681;28;20445;-65
2022/10/20 13:07:58;;;;;;;3.97;2.60;;;18.00;98.00;;;;;;5062871;28;20539;-65
2022/10/20 13:10:30;;;;;;;3.37;2.20;;;18.10;98.00;;;;;;5054935;28;20479;-65
2022/10/20 13:13:43;;;;;;;7.33;3.30;;;17.90;98.00;;;;;;5062455;28;20521;-64
2022/10/20 13:16:18;;;;;;;9.80;4.20;;;17.80;98.00;;;;;;5056733;28;20527;-65